Latest Weather Observations for Nullarbor

IDS60801

Issued at 12:31 am CDT Friday 9 December 2016 (issued every 30 minutes, with the page automatically refreshed every 10 minutes)

About weather observations | Map of weather stations | Latest weather observations for SA | Other Formats
Station Details ID: 018106 Name: NULLARBOR Lat: -31.45 Lon: 130.90 Height: 64.0 m
Data from the previous 72 hours. | See also: Recent months at Nullarbor
Date/Time
CDT
Temp
°C
App
Temp
°C
Dew
Point
°C
Rel
Hum
%
Delta-T
°C
Wind Press
QNH
hPa
Press
MSL
hPa
Rain since
9am
mm
Dir  Spd
km/h
Gust
km/h
Spd
kts
Gust
kts
09/12:30am 14.4 11.1 7.9 65 3.2 S 15 17 8 9 1022.5 1022.3 0.0
09/12:00am 16.0 12.4 8.5 61 3.8 SSE 17 20 9 11 1022.7 1022.6 0.0
 
Date/Time
CDT
Temp
°C
App
Temp
°C
Dew
Point
°C
Rel
Hum
%
Delta-T
°C
Wind Press
QNH
hPa
Press
MSL
hPa
Rain since
9am
mm
Dir  Spd
km/h
Gust
km/h
Spd
kts
Gust
kts
08/11:30pm 16.2 13.0 9.8 66 3.3 SSE 17 22 9 12 1022.5 1022.3 0.0
08/11:00pm 15.6 12.6 9.1 65 3.3 SSE 15 19 8 10 1022.5 1022.3 0.0
08/10:30pm 16.3 11.7 9.7 65 3.4 SSE 24 32 13 17 1022.0 1021.8 0.0
08/10:00pm 16.5 12.3 9.9 65 3.5 SSE 22 30 12 16 1021.8 1021.6 0.0
08/09:30pm 16.4 12.0 10.5 68 3.1 SSE 24 30 13 16 1021.5 1021.3 0.0
08/09:00pm 16.4 11.7 10.5 68 3.1 S 26 33 14 18 1021.2 1021.0 0.0
08/08:30pm 16.5 12.5 10.4 67 3.2 S 22 35 12 19 1020.7 1020.5 0.0
08/08:00pm 17.3 12.3 9.7 61 4.0 S 26 32 14 17 1020.4 1020.2 0.0
08/07:30pm 17.3 12.3 9.7 61 4.0 S 26 33 14 18 1020.0 1019.8 0.0
08/07:00pm 17.8 12.6 8.9 56 4.6 S 26 32 14 17 1019.7 1019.5 0.0
08/06:30pm 18.7 12.9 7.8 49 5.6 S 28 39 15 21 1019.5 1019.3 0.0
08/06:00pm 19.7 13.4 7.4 45 6.3 S 30 39 16 21 1019.2 1019.0 0.0
08/05:30pm 19.8 13.7 6.5 42 6.7 S 28 39 15 21 1019.1 1018.9 0.0
08/05:00pm 20.0 14.1 7.4 44 6.5 SSW 28 39 15 21 1019.1 1018.9 0.0
08/04:30pm 19.4 13.3 8.1 48 5.8 SSW 30 43 16 23 1019.0 1018.8 0.0
08/04:00pm 19.5 13.5 8.8 50 5.6 SSW 30 41 16 22 1019.1 1018.9 0.0
08/03:30pm 20.1 14.4 9.7 51 5.6 SSW 30 41 16 22 1019.2 1019.0 0.0
08/03:00pm 19.9 13.1 9.2 50 5.7 SSW 35 43 19 23 1019.2 1019.0 0.0
08/02:30pm 20.1 13.8 9.1 49 5.8 SSW 32 43 17 23 1019.1 1018.9 0.0
08/02:00pm 21.3 15.5 7.9 42 7.0 SSW 28 43 15 23 1019.2 1019.0 0.0
08/01:30pm 19.1 12.7 9.3 53 5.2 SSW 33 41 18 22 1019.5 1019.3 0.0
08/01:00pm 20.2 14.4 9.5 50 5.7 SSW 30 43 16 23 1019.5 1019.3 0.0
08/12:38pm 21.0 15.4 8.6 45 6.5 SSW 28 46 15 25 1019.4 1019.2 0.0
08/12:30pm 20.2 13.6 7.6 44 6.5 SW 32 39 17 21 1019.5 1019.3 0.0
08/12:00pm 21.0 14.7 8.9 46 6.4 SSW 32 39 17 21 1019.3 1019.1 0.0
08/11:30am 19.0 12.6 8.4 50 5.5 SW 32 39 17 21 1019.3 1019.1 0.0
08/11:00am 19.7 13.7 7.1 44 6.4 SSW 28 39 15 21 1019.0 1018.8 0.0
08/10:30am 19.2 13.1 6.7 44 6.3 SSW 28 39 15 21 1018.9 1018.7 0.0
08/10:00am 18.6 12.2 7.1 47 5.8 SW 30 41 16 22 1018.8 1018.6 0.0
08/09:30am 18.3 11.3 5.8 44 6.1 SW 32 43 17 23 1018.5 1018.3 0.0
08/09:00am 18.1 11.5 7.8 51 5.2 SW 32 41 17 22 1018.3 1018.1 1.2
08/08:30am 16.7 11.1 10.3 66 3.4 SSW 30 39 16 21 1017.9 1017.7 1.2
08/08:00am 17.0 12.8 8.2 56 4.5 SSW 20 28 11 15 1017.2 1017.0 1.2
08/07:30am 16.4 11.4 8.1 58 4.2 SW 24 30 13 16 1016.8 1016.6 1.2
08/07:00am 15.9 10.7 7.4 57 4.2 SW 24 33 13 18 1016.3 1016.1 1.2
08/06:30am 15.8 11.1 7.8 59 4.0 SW 22 30 12 16 1016.0 1015.8 1.2
08/06:00am 15.4 10.6 7.4 59 4.0 SW 22 28 12 15 1015.7 1015.5 1.2
08/05:30am 15.3 11.0 7.8 61 3.8 SW 20 30 11 16 1015.5 1015.3 1.2
08/05:00am 15.4 10.7 7.9 61 3.8 SSW 22 30 12 16 1015.2 1015.0 1.2
08/04:30am 15.9 10.3 8.6 62 3.7 SW 28 35 15 19 1014.9 1014.7 1.2
08/04:00am 16.1 10.7 8.1 59 4.1 SW 26 33 14 18 1014.8 1014.6 1.2
08/03:30am 16.4 10.8 8.6 60 4.0 SW 28 39 15 21 1014.7 1014.5 1.2
08/03:00am 16.0 10.3 8.5 61 3.8 SW 28 39 15 21 1014.6 1014.4 1.2
08/02:30am 16.4 11.8 9.6 64 3.6 SW 24 35 13 19 1014.4 1014.2 1.2
08/02:00am 16.2 10.3 9.2 63 3.6 SW 30 43 16 23 1014.1 1013.9 1.2
08/01:30am 16.2 10.8 9.6 65 3.4 SW 28 39 15 21 1014.0 1013.8 1.2
08/01:00am 16.4 10.7 9.8 65 3.5 SW 30 44 16 24 1013.6 1013.4 1.2
08/12:35am 16.4 10.8 10.3 67 3.2 SW 30 48 16 26 1013.1 1012.9 1.2
08/12:30am 16.3 10.8 10.6 69 3.0 SW 30 44 16 24 1013.2 1013.0 1.2
08/12:00am 16.5 10.6 10.4 67 3.2 SSW 32 41 17 22 1013.0 1012.8 1.2
 
Date/Time
CDT
Temp
°C
App
Temp
°C
Dew
Point
°C
Rel
Hum
%
Delta-T
°C
Wind Press
QNH
hPa
Press
MSL
hPa
Rain since
9am
mm
Dir  Spd
km/h
Gust
km/h
Spd
kts
Gust
kts
07/11:30pm 16.7 10.2 10.5 67 3.3 SSW 35 46 19 25 1012.9 1012.7 1.2
07/11:17pm 16.7 10.8 10.5 67 3.3 SSW 32 50 17 27 1012.7 1012.5 1.2
07/11:00pm 17.0 11.1 11.3 69 3.1 SW 33 44 18 24 1012.6 1012.4 1.2
07/10:32pm 17.3 11.8 12.0 71 2.9 SW 32 54 17 29 1012.2 1012.0 1.2
07/10:30pm 17.3 12.3 12.2 72 2.8 SW 30 37 16 20 1012.2 1012.0 1.2
07/10:03pm 18.0 12.2 12.7 71 3.0 SW 35 57 19 31 1011.6 1011.4 1.2
07/10:00pm 18.0 12.8 13.3 74 2.7 SW 33 46 18 25 1011.6 1011.4 1.2
07/09:30pm 18.3 12.9 13.8 75 2.6 SW 35 44 19 24 1011.2 1011.0 1.2
07/09:00pm 18.7 12.6 14.0 74 2.7 SW 39 57 21 31 1010.7 1010.5 1.2
07/08:31pm 19.1 11.1 13.5 70 3.2 SW 48 67 26 36 1009.5 1009.3 1.2
07/08:30pm 19.0 11.3 13.4 70 3.2 SW 46 63 25 34 1009.5 1009.3 1.2
07/08:00pm 19.7 10.8 13.2 66 3.7 SW 52 72 28 39 1008.7 1008.4 1.2
07/07:30pm 20.2 12.6 14.8 71 3.2 SW 48 74 26 40 1007.5 1007.2 1.2
07/07:00pm 20.8 12.4 15.6 72 3.1 SW 54 72 29 39 1006.0 1005.8 1.2
07/06:56pm 20.8 13.2 15.8 73 3.0 SW 50 78 27 42 1005.6 1005.4 1.2
07/06:30pm 23.1 14.3 18.0 73 3.2 WSW 61 82 33 44 1003.6 1003.4 1.2
07/06:21pm 24.4 17.1 18.3 69 3.9 WSW 54 80 29 43 1003.4 1003.2 1.2
07/06:09pm 25.2 18.1 18.9 68 4.0 WSW 54 87 29 47 1002.6 1002.4 1.2
07/06:00pm 25.6 17.4 19.3 68 4.1 W 61 104 33 56 1000.4 1000.2 0.8
07/05:59pm 25.3 17.4 18.2 64 4.5 W 57 104 31 56 1000.4 1000.2 0.4
07/05:54pm 30.4 22.2 14.1 37 9.9 WNW 50 104 27 56 1001.4 1001.2 0.0
07/05:52pm 36.2 28.0 11.8 23 14.6 NW 46 104 25 56 1000.9 1000.7 0.0
07/05:34pm 39.6 32.4 9.1 16 17.8 NW 37 56 20 30 999.9 999.7 0.0
07/05:30pm 38.8 31.1 8.5 16 17.5 NW 39 52 21 28 1000.1 999.9 0.0
07/05:22pm 38.7 30.5 8.4 16 17.4 NW 41 61 22 33 1000.1 999.9 0.0
07/05:00pm 39.4 31.8 8.9 16 17.7 NNW 39 59 21 32 1000.5 1000.3 0.0
07/04:30pm 38.0 30.9 9.6 18 16.6 NNW 37 57 20 31 1001.7 1001.5 0.0
07/04:00pm 38.1 32.3 7.9 16 17.2 NNW 28 48 15 26 1002.4 1002.2 0.0
07/03:31pm 38.3 31.8 8.1 16 17.3 NNW 32 50 17 27 1003.0 1002.8 0.0
07/03:30pm 38.5 31.8 8.2 16 17.4 NNW 33 50 18 27 1003.1 1002.9 0.0
07/03:00pm 37.3 31.4 9.0 18 16.4 NW 30 50 16 27 1003.9 1003.7 0.0
07/02:33pm 36.6 31.3 10.0 20 15.5 NNW 28 46 15 25 1004.6 1004.4 0.0
07/02:30pm 36.5 30.6 9.2 19 15.8 NNW 30 46 16 25 1004.8 1004.6 0.0
07/02:04pm 36.8 30.2 7.8 17 16.4 NNW 32 50 17 27 1005.5 1005.3 0.0
07/02:00pm 36.6 30.6 10.0 20 15.5 NNW 32 46 17 25 1005.6 1005.4 0.0
07/01:30pm 36.4 31.7 11.9 23 14.7 NNW 28 50 15 27 1006.5 1006.3 0.0
07/01:10pm 35.3 30.7 12.3 25 13.8 NNW 28 48 15 26 1007.2 1006.9 0.0
07/01:00pm 35.1 29.9 11.5 24 14.0 N 30 43 16 23 1007.4 1007.1 0.0
07/12:30pm 32.9 27.5 10.9 26 12.8 N 30 43 16 23 1008.1 1007.8 0.0
07/12:00pm 32.7 28.2 10.1 25 13.0 N 24 39 13 21 1008.6 1008.3 0.0
07/11:30am 31.4 27.5 9.6 26 12.4 NNE 20 32 11 17 1008.9 1008.6 0.0
07/11:00am 29.2 25.5 10.3 31 10.7 NNE 20 32 11 17 1009.5 1009.3 0.0
07/10:30am 27.3 23.6 10.1 34 9.6 NE 20 30 11 16 1010.0 1009.8 0.0
07/10:00am 26.0 21.7 9.4 35 9.1 NE 22 28 12 15 1010.4 1010.2 0.0
07/09:30am 23.9 19.8 8.7 38 8.2 NE 20 28 11 15 1010.8 1010.6 0.0
07/09:00am 21.9 17.3 8.1 41 7.3 ENE 22 30 12 16 1011.3 1011.1 0.2
07/08:30am 19.7 15.5 7.4 45 6.3 ENE 19 24 10 13 1011.5 1011.3 0.2
07/08:00am 17.4 14.7 8.8 57 4.5 ENE 13 19 7 10 1011.7 1011.5 0.2
07/07:30am 13.9 12.1 9.3 74 2.4 NE 9 11 5 6 1011.8 1011.6 0.2
07/07:00am 11.0 8.2 8.6 85 1.2 ENE 13 15 7 8 1011.5 1011.3 0.2
07/06:30am 9.5 7.1 7.1 85 1.1 E 9 9 5 5 1011.8 1011.6 0.2
07/06:00am 10.4 8.8 8.0 85 1.2 ESE 6 7 3 4 1011.9 1011.7 0.2
07/05:30am 11.1 9.0 8.1 82 1.5 ENE 9 11 5 6 1011.8 1011.6 0.2
07/05:00am 10.9 8.4 8.3 84 1.3 NE 11 13 6 7 1012.0 1011.8 0.2
07/04:30am 11.9 10.0 8.9 82 1.5 NE 9 11 5 6 1012.1 1011.9 0.2
07/04:00am 12.7 11.5 9.5 81 1.6 ENE 6 7 3 4 1012.2 1012.0 0.2
07/03:30am 13.4 13.4 9.8 79 1.9 CALM 0 6 0 3 1012.5 1012.3 0.2
07/03:00am 13.1 10.9 9.5 79 1.8 ENE 11 13 6 7 1012.7 1012.5 0.2
07/02:30am 14.2 11.8 10.2 77 2.1 ENE 13 17 7 9 1013.0 1012.8 0.2
07/02:00am 15.0 12.1 11.0 77 2.1 E 17 20 9 11 1013.3 1013.1 0.2
07/01:30am 15.4 13.3 12.3 82 1.7 E 15 17 8 9 1013.9 1013.7 0.2
07/01:00am 16.0 13.8 13.3 84 1.5 ESE 17 20 9 11 1014.3 1014.1 0.2
07/12:30am 16.1 13.7 13.8 86 1.3 ESE 19 22 10 12 1014.6 1014.4 0.2
07/12:00am 16.3 13.8 14.1 87 1.3 ESE 20 26 11 14 1014.7 1014.5 0.2
 
Date/Time
CDT
Temp
°C
App
Temp
°C
Dew
Point
°C
Rel
Hum
%
Delta-T
°C
Wind Press
QNH
hPa
Press
MSL
hPa
Rain since
9am
mm
Dir  Spd
km/h
Gust
km/h
Spd
kts
Gust
kts
06/11:30pm 16.3 13.8 14.1 87 1.3 ESE 20 24 11 13 1015.1 1014.9 0.2
06/11:00pm 16.6 13.7 14.1 85 1.4 SE 22 28 12 15 1015.2 1015.0 0.2
06/10:30pm 16.7 13.4 14.0 84 1.5 SE 24 30 13 16 1015.3 1015.1 0.2
06/10:00pm 16.9 13.5 13.8 82 1.8 SE 24 33 13 18 1015.1 1014.9 0.2
06/09:30pm 17.0 12.7 13.3 79 2.1 SE 28 35 15 19 1015.0 1014.8 0.2
06/09:00pm 17.3 13.0 13.2 77 2.3 SE 28 35 15 19 1015.0 1014.8 0.2
06/08:30pm 17.6 12.4 12.9 74 2.6 SE 32 39 17 21 1014.9 1014.7 0.2
06/08:00pm 18.5 13.1 12.3 67 3.5 SE 32 41 17 22 1014.6 1014.4 0.2
06/07:30pm 19.3 13.9 12.1 63 4.0 SE 32 41 17 22 1014.3 1014.1 0.2
06/07:00pm 19.9 14.4 12.4 62 4.2 SE 33 44 18 24 1014.1 1013.9 0.2
06/06:30pm 20.4 14.4 12.1 59 4.6 SSE 35 43 19 23 1014.0 1013.8 0.2
06/06:00pm 20.4 13.9 11.6 57 4.9 SE 37 46 20 25 1014.0 1013.8 0.2
06/05:30pm 21.8 16.3 12.6 56 5.2 SSE 33 43 18 23 1014.2 1014.0 0.2
06/05:00pm 21.5 15.2 12.4 56 5.2 SSE 37 44 20 24 1014.2 1014.0 0.2
06/04:30pm 23.5 17.9 11.5 47 6.8 SSE 32 41 17 22 1014.4 1014.2 0.2
06/04:00pm 23.5 17.8 11.2 46 6.9 SSE 32 39 17 21 1014.5 1014.3 0.2
06/03:30pm 24.3 18.9 10.9 43 7.5 SSE 30 37 16 20 1014.7 1014.5 0.2
06/03:00pm 24.6 20.0 12.2 46 7.1 SSE 28 37 15 20 1014.9 1014.7 0.2
06/02:30pm 24.2 20.0 12.5 48 6.7 SSE 26 33 14 18 1015.2 1015.0 0.2
06/02:00pm 23.9 20.2 11.6 46 7.0 SSE 22 33 12 18 1015.4 1015.2 0.2
06/01:30pm 24.4 20.8 12.0 46 7.1 S 22 33 12 18 1015.6 1015.4 0.2
06/01:00pm 24.0 20.8 12.0 47 6.8 SE 20 28 11 15 1015.9 1015.7 0.2
06/12:30pm 24.3 21.7 11.9 45 7.1 SE 17 24 9 13 1016.1 1015.9 0.2
06/12:00pm 23.5 21.2 11.9 48 6.6 SSE 15 22 8 12 1016.5 1016.3 0.2
06/11:30am 23.7 22.1 11.7 47 6.8 S 11 24 6 13 1016.5 1016.3 0.2
06/11:00am 23.3 22.3 12.3 50 6.3 SE 9 20 5 11 1016.6 1016.4 0.0
06/10:30am 22.7 21.4 11.4 49 6.3 ESE 9 15 5 8 1016.6 1016.4 0.0
06/10:00am 21.3 19.4 10.5 50 5.9 SE 11 19 6 10 1016.5 1016.3 0.0
06/09:30am 19.9 18.4 10.6 55 5.1 ESE 9 13 5 7 1016.5 1016.3 0.0
06/09:00am 18.7 18.7 11.3 62 4.0 ESE 2 7 1 4 1016.7 1016.5 0.6
06/08:30am 17.5 16.0 13.0 75 2.5 SSW 13 17 7 9 1016.6 1016.4 0.6
06/08:00am 15.4 13.6 13.2 87 1.2 SW 15 20 8 11 1016.4 1016.2 0.6
06/07:30am 14.2 14.2 13.6 96 0.3 NNW 6 11 3 6 1015.7 1015.5 0.6
06/07:00am 13.3 12.7 12.4 94 0.5 WNW 7 11 4 6 1015.4 1015.2 0.6
06/06:30am 13.6 13.1 12.7 94 0.5 N 7 11 4 6 1014.8 1014.6 0.6
06/06:00am 14.1 13.9 13.0 93 0.6 N 6 9 3 5 1014.7 1014.5 0.6
06/05:30am 14.5 14.1 12.9 90 0.9 NE 7 11 4 6 1014.4 1014.2 0.6
06/05:00am 15.1 13.6 13.1 88 1.1 ESE 13 17 7 9 1014.2 1014.0 0.6
06/04:30am 15.1 13.6 13.1 88 1.1 ESE 13 19 7 10 1013.8 1013.6 0.6
06/04:00am 15.2 13.7 13.1 87 1.2 SE 13 17 7 9 1014.6 1014.4 0.6
06/03:30am 15.2 12.6 13.2 88 1.1 SSW 19 30 10 16 1013.6 1013.4 0.6
06/03:00am 15.0 9.5 13.5 91 0.8 ENE 35 44 19 24 1012.5 1012.3 0.6
06/02:37am 14.8 9.0 13.8 94 0.6 E 37 56 20 30 1010.7 1010.5 0.6
06/02:35am 14.9 9.5 13.8 93 0.6 E 35 52 19 28 1011.9 1011.7 0.6
06/02:30am 15.1 10.2 13.8 92 0.7 E 32 39 17 21 1014.0 1013.8 0.6
06/02:00am 15.5 12.1 13.7 89 1.0 ESE 24 30 13 16 1015.7 1015.5 0.4
06/01:30am 15.8 12.0 13.6 87 1.2 SE 26 35 14 19 1016.9 1016.7 0.4
06/01:00am 16.0 13.5 14.0 88 1.1 SSE 20 26 11 14 1017.8 1017.6 0.4

Other Formats:

Comma delimited format used in spreadsheet applications
http://www.bom.gov.au/fwo/IDS60801/IDS60801.94651.axf

JavaScript Object Notation format (JSON) in row-major order
http://www.bom.gov.au/fwo/IDS60801/IDS60801.94651.json